createdAt,value
2022-11-01T00:02:01.403Z,100.00
2022-11-01T00:04:29.213Z,100.00
2022-11-01T00:06:56.791Z,100.00
2022-11-01T00:09:24.782Z,100.00
2022-11-01T00:11:52.452Z,100.00
2022-11-01T00:14:20.451Z,100.00
2022-11-01T00:16:48.895Z,100.00
2022-11-01T00:19:16.703Z,100.00
2022-11-01T00:21:44.737Z,100.00
2022-11-01T00:24:12.730Z,100.00
2022-11-01T00:26:41.228Z,100.00
2022-11-01T00:29:08.948Z,100.00
2022-11-01T00:31:36.488Z,100.00
2022-11-01T00:34:06.146Z,100.00
2022-11-01T00:36:35.513Z,100.00
2022-11-01T00:39:04.156Z,100.00
2022-11-01T00:41:32.170Z,100.00
2022-11-01T00:44:00.033Z,100.00
2022-11-01T00:46:27.986Z,100.00
2022-11-01T00:48:55.460Z,100.00
2022-11-01T00:51:23.401Z,100.00
2022-11-01T00:53:50.959Z,100.00
2022-11-01T00:56:18.682Z,100.00
2022-11-01T00:58:46.542Z,100.00
2022-11-01T01:01:14.197Z,100.00
2022-11-01T01:03:41.854Z,100.00
2022-11-01T01:06:09.825Z,100.00
2022-11-01T01:08:37.756Z,100.00
2022-11-01T01:11:05.707Z,100.00
2022-11-01T01:13:33.664Z,100.00
2022-11-01T01:16:01.229Z,100.00
2022-11-01T01:18:28.675Z,100.00
2022-11-01T01:21:04.599Z,100.00
2022-11-01T01:23:32.720Z,100.00
2022-11-01T01:26:05.739Z,100.00
2022-11-01T01:28:33.313Z,100.00
2022-11-01T01:31:00.848Z,100.00
2022-11-01T01:33:28.634Z,100.00
2022-11-01T01:35:56.205Z,100.00
2022-11-01T01:38:23.960Z,100.00
2022-11-01T01:40:51.495Z,100.00
2022-11-01T01:43:18.946Z,100.00
2022-11-01T01:45:46.487Z,100.00
2022-11-01T01:48:27.525Z,100.00
2022-11-01T01:51:00.800Z,100.00
2022-11-01T01:53:38.715Z,100.00
2022-11-01T01:56:18.300Z,100.00
2022-11-01T01:59:01.350Z,100.00
2022-11-01T02:01:29.908Z,100.00
2022-11-01T02:04:03.662Z,100.00
2022-11-01T02:06:33.404Z,100.00
2022-11-01T02:09:04.127Z,100.00
2022-11-01T02:11:32.033Z,100.00
2022-11-01T02:14:00.854Z,100.00
2022-11-01T02:16:34.453Z,100.00
2022-11-01T02:19:39.297Z,100.00
2022-11-01T02:22:10.233Z,100.00
2022-11-01T02:24:46.674Z,100.00
2022-11-01T02:27:20.581Z,100.00
2022-11-01T02:30:06.650Z,100.00
2022-11-01T02:32:46.067Z,100.00
2022-11-01T02:35:25.387Z,100.00
2022-11-01T02:38:14.527Z,100.00
2022-11-01T02:40:48.178Z,100.00
2022-11-01T02:43:21.559Z,100.00
2022-11-01T02:45:50.815Z,100.00
2022-11-01T02:48:21.797Z,100.00
2022-11-01T02:50:56.413Z,100.00
2022-11-01T02:53:23.997Z,100.00
2022-11-01T02:55:53.584Z,100.00
2022-11-01T02:58:29.101Z,100.00
2022-11-01T03:00:57.202Z,100.00
2022-11-01T03:03:32.521Z,100.00
2022-11-01T03:06:00.424Z,100.00
2022-11-01T03:08:57.790Z,100.00
2022-11-01T03:11:58.527Z,100.00
2022-11-01T03:14:59.944Z,100.00
2022-11-01T03:17:39.735Z,100.00
2022-11-01T03:20:23.197Z,100.00
2022-11-01T03:22:56.754Z,100.00
2022-11-01T03:25:41.819Z,100.00
2022-11-01T03:28:19.268Z,100.00
2022-11-01T03:30:53.586Z,100.00
2022-11-01T03:33:23.274Z,100.00
2022-11-01T03:35:54.519Z,100.00
2022-11-01T03:38:26.975Z,100.00
2022-11-01T03:41:01.238Z,100.00
2022-11-01T03:43:31.501Z,100.00
2022-11-01T03:45:59.172Z,100.00
2022-11-01T03:48:26.825Z,100.00
2022-11-01T03:50:58.626Z,100.00
2022-11-01T03:53:26.651Z,100.00
2022-11-01T03:55:54.814Z,100.00
2022-11-01T03:58:22.817Z,100.00
2022-11-01T04:00:51.020Z,100.00
2022-11-01T04:03:18.970Z,100.00
2022-11-01T04:05:46.959Z,100.00
2022-11-01T04:08:14.729Z,100.00
2022-11-01T04:10:44.653Z,100.00
2022-11-01T04:13:13.747Z,100.00
2022-11-01T04:16:00.982Z,100.00
2022-11-01T04:18:46.995Z,100.00
2022-11-01T04:21:18.671Z,100.00
2022-11-01T04:23:47.233Z,100.00
2022-11-01T04:26:17.707Z,100.00
2022-11-01T04:28:57.061Z,100.00
2022-11-01T04:31:37.171Z,100.00
2022-11-01T04:34:05.721Z,100.00
2022-11-01T04:36:33.940Z,100.00
2022-11-01T04:39:01.526Z,100.00
2022-11-01T04:41:30.504Z,100.00
2022-11-01T04:43:59.225Z,100.00
2022-11-01T04:46:30.747Z,100.00
2022-11-01T04:48:58.754Z,100.00
2022-11-01T04:51:26.326Z,100.00
2022-11-01T04:53:54.310Z,100.00
2022-11-01T04:56:22.518Z,100.00
2022-11-01T04:58:50.914Z,100.00
2022-11-01T05:01:18.555Z,100.00
2022-11-01T05:03:48.234Z,100.00
2022-11-01T05:06:16.215Z,100.00
2022-11-01T05:08:44.176Z,100.00
2022-11-01T05:11:12.649Z,100.00
2022-11-01T05:13:40.143Z,100.00
2022-11-01T05:16:19.475Z,100.00
2022-11-01T05:18:48.456Z,100.00
2022-11-01T05:21:16.969Z,100.00
2022-11-01T05:23:44.454Z,100.00
2022-11-01T05:26:12.463Z,100.00
2022-11-01T05:28:39.935Z,100.00
2022-11-01T05:31:07.933Z,100.00
2022-11-01T05:33:35.559Z,100.00
2022-11-01T05:36:03.161Z,100.00
2022-11-01T05:38:31.154Z,100.00
2022-11-01T05:41:01.808Z,100.00
2022-11-01T05:43:29.297Z,100.00
2022-11-01T05:45:57.235Z,100.00
2022-11-01T05:48:24.803Z,100.00
2022-11-01T05:50:52.383Z,100.00
2022-11-01T05:53:20.955Z,100.00
2022-11-01T05:55:48.540Z,100.00
2022-11-01T05:58:16.036Z,100.00
2022-11-01T06:00:43.970Z,100.00
2022-11-01T06:03:11.482Z,100.00
2022-11-01T06:05:39.710Z,100.00
2022-11-01T06:08:07.650Z,100.00
2022-11-01T06:10:35.561Z,100.00
2022-11-01T06:13:03.344Z,100.00
2022-11-01T06:15:34.305Z,100.00
2022-11-01T06:18:05.854Z,100.00
2022-11-01T06:20:34.674Z,100.00
2022-11-01T06:23:08.440Z,100.00
2022-11-01T06:25:36.617Z,100.00
2022-11-01T06:28:04.682Z,100.00
2022-11-01T06:30:32.672Z,100.00
2022-11-01T06:33:01.534Z,100.00
2022-11-01T06:35:29.373Z,100.00
2022-11-01T06:38:02.669Z,100.00
2022-11-01T06:40:30.742Z,100.00
2022-11-01T06:43:02.846Z,100.00
2022-11-01T06:45:32.222Z,100.00
2022-11-01T06:48:00.033Z,100.00
2022-11-01T06:50:28.159Z,100.00
2022-11-01T06:52:58.465Z,100.00
2022-11-01T06:55:27.451Z,100.00
2022-11-01T06:58:00.668Z,100.00
2022-11-01T07:00:29.786Z,100.00
2022-11-01T07:03:01.725Z,100.00
2022-11-01T07:05:34.404Z,100.00
2022-11-01T07:08:09.585Z,100.00
2022-11-01T07:10:39.122Z,100.00
2022-11-01T07:13:09.385Z,99.42
2022-11-01T07:15:37.432Z,98.49
2022-11-01T07:18:08.324Z,97.75
2022-11-01T07:20:41.675Z,97.80
2022-11-01T07:23:16.082Z,97.92
2022-11-01T07:25:44.410Z,96.70
2022-11-01T07:28:12.140Z,97.00
2022-11-01T07:30:40.380Z,96.31
2022-11-01T07:33:07.966Z,98.08
2022-11-01T07:35:36.003Z,99.05
2022-11-01T07:38:06.500Z,98.23
2022-11-01T07:40:39.527Z,97.47
2022-11-01T07:43:07.722Z,99.16
2022-11-01T07:45:36.280Z,97.77
2022-11-01T07:48:10.598Z,96.90
2022-11-01T07:50:40.341Z,95.61
2022-11-01T07:53:19.492Z,96.03
2022-11-01T07:55:47.685Z,94.32
2022-11-01T07:58:16.374Z,94.31
2022-11-01T08:00:44.962Z,93.86
2022-11-01T08:03:17.715Z,97.10
2022-11-01T08:05:46.908Z,95.22
2022-11-01T08:08:16.157Z,95.67
2022-11-01T08:10:43.927Z,95.74
2022-11-01T08:13:22.957Z,97.02
2022-11-01T08:15:52.352Z,95.52
2022-11-01T08:18:24.590Z,96.56
2022-11-01T08:20:52.965Z,95.02
2022-11-01T08:23:20.917Z,96.88
2022-11-01T08:25:48.506Z,98.00
2022-11-01T08:28:20.431Z,96.04
2022-11-01T08:30:49.697Z,95.57
2022-11-01T08:33:17.705Z,95.08
2022-11-01T08:35:50.166Z,94.08
2022-11-01T08:38:19.062Z,97.20
2022-11-01T08:40:47.111Z,99.60
2022-11-01T08:43:14.740Z,100.00
2022-11-01T08:45:42.722Z,99.44
2022-11-01T08:48:11.198Z,100.00
2022-11-01T08:50:39.311Z,100.00
2022-11-01T08:53:13.097Z,99.46
2022-11-01T08:55:41.756Z,98.27
2022-11-01T08:58:09.670Z,98.09
2022-11-01T09:00:37.725Z,98.79
2022-11-01T09:03:05.792Z,95.95
2022-11-01T09:05:33.537Z,92.96
2022-11-01T09:08:02.474Z,88.12
2022-11-01T09:10:30.979Z,86.18
2022-11-01T09:13:01.022Z,86.61
2022-11-01T09:15:30.108Z,85.39
2022-11-01T09:17:57.655Z,85.53
2022-11-01T09:20:26.535Z,80.21
2022-11-01T09:22:54.014Z,75.81
2022-11-01T09:25:21.559Z,75.77
2022-11-01T09:27:49.091Z,71.49
2022-11-01T09:30:16.665Z,71.62
2022-11-01T09:32:45.137Z,72.59
2022-11-01T09:35:13.204Z,69.26
2022-11-01T09:37:41.155Z,71.33
2022-11-01T09:40:10.517Z,71.35
2022-11-01T09:42:42.621Z,74.29
2022-11-01T09:45:23.750Z,79.56
2022-11-01T09:47:55.022Z,79.16
2022-11-01T09:50:27.546Z,80.48
2022-11-01T09:52:56.617Z,79.07
2022-11-01T09:55:54.610Z,79.26
2022-11-01T09:58:35.315Z,76.32
2022-11-01T10:01:19.812Z,74.53
2022-11-01T10:04:02.473Z,75.13
2022-11-01T10:06:54.157Z,78.39
2022-11-01T10:09:40.273Z,78.33
2022-11-01T10:12:26.586Z,78.00
2022-11-01T10:14:56.975Z,77.73
2022-11-01T10:17:49.410Z,76.85
2022-11-01T10:20:24.607Z,78.21
2022-11-01T10:22:52.268Z,76.67
2022-11-01T10:25:19.817Z,77.75
2022-11-01T10:27:56.577Z,79.87
2022-11-01T10:30:25.970Z,79.50
2022-11-01T10:33:03.580Z,80.48
2022-11-01T10:35:38.905Z,80.91
2022-11-01T10:38:41.539Z,81.44
2022-11-01T10:41:10.137Z,78.96
2022-11-01T10:43:44.660Z,78.84
2022-11-01T10:46:20.485Z,76.16
2022-11-01T10:48:58.713Z,76.12
2022-11-01T10:51:30.530Z,79.52
2022-11-01T10:54:03.588Z,79.78
2022-11-01T10:56:36.715Z,79.33
2022-11-01T10:59:18.064Z,76.14
2022-11-01T11:01:47.997Z,77.08
2022-11-01T11:04:20.348Z,75.54
2022-11-01T11:06:48.740Z,78.04
2022-11-01T11:09:28.288Z,77.49
2022-11-01T11:12:02.022Z,74.41
2022-11-01T11:14:33.065Z,75.43
2022-11-01T11:17:03.034Z,75.35
2022-11-01T11:19:30.809Z,76.76
2022-11-01T11:22:00.007Z,76.51
2022-11-01T11:24:39.705Z,76.01
2022-11-01T11:27:22.399Z,75.06
2022-11-01T11:29:53.715Z,72.24
2022-11-01T11:32:32.164Z,72.00
2022-11-01T11:35:04.123Z,78.48
2022-11-01T11:37:38.721Z,80.90
2022-11-01T11:40:24.722Z,77.94
2022-11-01T11:42:55.178Z,76.40
2022-11-01T11:45:31.185Z,83.18
2022-11-01T11:48:19.457Z,84.52
2022-11-01T11:50:47.082Z,83.78
2022-11-01T11:53:24.583Z,82.33
2022-11-01T11:55:57.990Z,81.07
2022-11-01T11:58:32.943Z,80.04
2022-11-01T12:01:04.933Z,77.52
2022-11-01T12:03:52.563Z,78.75
2022-11-01T12:06:26.964Z,77.48
2022-11-01T12:08:59.492Z,76.44
2022-11-01T12:11:46.916Z,76.92
2022-11-01T12:14:25.712Z,75.03
2022-11-01T12:16:53.283Z,71.69
2022-11-01T12:19:27.516Z,71.87
2022-11-01T12:22:04.374Z,70.09
2022-11-01T12:24:35.738Z,65.38
2022-11-01T12:27:09.439Z,65.58
2022-11-01T12:29:47.491Z,65.74
2022-11-01T12:32:30.470Z,67.16
2022-11-01T12:35:07.500Z,63.98
2022-11-01T12:37:47.015Z,69.02
2022-11-01T12:40:29.904Z,63.89
2022-11-01T12:43:13.080Z,59.94
2022-11-01T12:45:56.438Z,58.33
2022-11-01T12:48:33.588Z,54.73
2022-11-01T12:51:12.480Z,53.34
2022-11-01T12:54:15.310Z,51.63
2022-11-01T12:56:43.027Z,49.31
2022-11-01T12:59:13.852Z,50.38
2022-11-01T13:01:50.934Z,51.95
2022-11-01T13:04:28.883Z,52.88
2022-11-01T13:07:07.551Z,54.08
2022-11-01T13:10:05.073Z,57.26
2022-11-01T13:12:42.327Z,60.43
2022-11-01T13:15:28.365Z,62.57
2022-11-01T13:18:12.267Z,64.15
2022-11-01T13:20:49.989Z,63.53
2022-11-01T13:23:48.551Z,63.12
2022-11-01T13:26:41.371Z,63.27
2022-11-01T13:29:21.710Z,62.49
2022-11-01T13:31:52.398Z,62.92
2022-11-01T13:34:37.428Z,61.33
2022-11-01T13:37:27.311Z,57.39
2022-11-01T13:40:03.991Z,59.47
2022-11-01T13:42:38.973Z,56.91
2022-11-01T13:45:12.508Z,55.94
2022-11-01T13:48:06.163Z,53.31
2022-11-01T13:51:10.965Z,54.06
2022-11-01T13:53:49.529Z,54.11
2022-11-01T13:56:46.458Z,54.61
2022-11-01T13:59:44.739Z,55.86
2022-11-01T14:02:28.187Z,56.78
2022-11-01T14:05:02.479Z,57.13
2022-11-01T14:07:53.614Z,58.76
2022-11-01T14:10:48.567Z,57.23
2022-11-01T14:13:19.045Z,60.33
2022-11-01T14:16:16.660Z,59.92
2022-11-01T14:19:02.833Z,60.27
2022-11-01T14:21:44.303Z,63.87
2022-11-01T14:24:22.536Z,61.66
2022-11-01T14:27:05.041Z,61.63
2022-11-01T14:29:36.163Z,63.65
2022-11-01T14:32:04.629Z,63.76
2022-11-01T14:34:35.842Z,64.55
2022-11-01T14:37:14.692Z,64.71
2022-11-01T14:39:59.564Z,67.17
2022-11-01T14:42:37.273Z,67.23
2022-11-01T14:45:24.945Z,67.24
2022-11-01T14:47:56.405Z,67.45
2022-11-01T14:50:45.011Z,68.80
2022-11-01T14:53:24.431Z,67.93
2022-11-01T14:56:05.919Z,68.49
2022-11-01T14:58:33.564Z,70.89
2022-11-01T15:01:12.727Z,70.93
2022-11-01T15:03:46.423Z,73.29
2022-11-01T15:06:22.885Z,73.34
2022-11-01T15:08:50.739Z,74.39
2022-11-01T15:11:18.852Z,72.77
2022-11-01T15:13:46.822Z,70.70
2022-11-01T15:16:16.447Z,68.82
2022-11-01T15:18:50.147Z,69.18
2022-11-01T15:21:25.535Z,70.92
2022-11-01T15:23:57.605Z,72.08
2022-11-01T15:26:29.900Z,74.70
2022-11-01T15:29:01.873Z,74.64
2022-11-01T15:31:31.097Z,73.38
2022-11-01T15:34:02.330Z,76.27
2022-11-01T15:36:35.964Z,74.16
2022-11-01T15:39:15.352Z,76.19
2022-11-01T15:41:42.932Z,77.05
2022-11-01T15:44:24.890Z,77.52
2022-11-01T15:46:59.247Z,79.28
2022-11-01T15:49:32.792Z,79.53
2022-11-01T15:52:02.915Z,82.17
2022-11-01T15:54:36.713Z,83.66
2022-11-01T15:57:13.084Z,86.01
2022-11-01T16:00:23.080Z,87.81
2022-11-01T16:02:56.696Z,90.63
2022-11-01T16:05:26.700Z,91.87
2022-11-01T16:07:54.722Z,92.62
2022-11-01T16:10:25.715Z,93.11
2022-11-01T16:12:54.419Z,93.66
2022-11-01T16:15:24.190Z,94.51
2022-11-01T16:17:55.780Z,94.84
2022-11-01T16:20:34.101Z,95.42
2022-11-01T16:23:04.368Z,94.05
2022-11-01T16:25:34.710Z,93.19
2022-11-01T16:28:10.178Z,91.05
2022-11-01T16:30:49.934Z,91.36
2022-11-01T16:33:36.941Z,92.82
2022-11-01T16:36:38.047Z,95.70
2022-11-01T16:39:25.574Z,95.62
2022-11-01T16:41:53.810Z,100.00
2022-11-01T16:44:22.448Z,100.00
2022-11-01T16:46:50.290Z,100.00
2022-11-01T16:49:23.239Z,100.00
2022-11-01T16:51:53.302Z,100.00
2022-11-01T16:54:21.271Z,100.00
2022-11-01T16:56:54.764Z,100.00
2022-11-01T16:59:38.207Z,100.00
2022-11-01T17:02:17.734Z,100.00
2022-11-01T17:04:49.794Z,100.00
2022-11-01T17:07:17.719Z,100.00
2022-11-01T17:09:48.402Z,100.00
2022-11-01T17:12:16.411Z,100.00
2022-11-01T17:14:45.895Z,100.00
2022-11-01T17:17:17.209Z,100.00
2022-11-01T17:19:49.217Z,100.00
2022-11-01T17:22:20.905Z,100.00
2022-11-01T17:24:48.729Z,100.00
2022-11-01T17:27:18.622Z,100.00
2022-11-01T17:29:46.297Z,100.00
2022-11-01T17:32:14.754Z,100.00
2022-11-01T17:34:42.347Z,100.00
2022-11-01T17:37:17.140Z,100.00
2022-11-01T17:39:44.809Z,100.00
2022-11-01T17:42:12.358Z,100.00
2022-11-01T17:44:40.268Z,100.00
2022-11-01T17:47:13.716Z,100.00
2022-11-01T17:49:41.668Z,100.00
2022-11-01T17:52:09.251Z,100.00
2022-11-01T17:54:37.435Z,100.00
2022-11-01T17:57:05.599Z,100.00
2022-11-01T17:59:33.587Z,100.00
2022-11-01T18:02:02.290Z,100.00
2022-11-01T18:04:35.517Z,100.00
2022-11-01T18:07:06.555Z,100.00
2022-11-01T18:09:34.641Z,100.00
2022-11-01T18:12:02.755Z,100.00
2022-11-01T18:14:46.934Z,100.00
2022-11-01T18:17:49.043Z,100.00
2022-11-01T18:20:30.082Z,100.00
2022-11-01T18:23:03.522Z,100.00
2022-11-01T18:25:37.155Z,100.00
2022-11-01T18:28:13.561Z,100.00
2022-11-01T18:30:47.576Z,100.00
2022-11-01T18:33:19.391Z,100.00
2022-11-01T18:35:54.578Z,100.00
2022-11-01T18:38:41.777Z,100.00
2022-11-01T18:41:13.599Z,100.00
2022-11-01T18:43:43.185Z,100.00
2022-11-01T18:46:24.959Z,100.00
2022-11-01T18:49:00.167Z,100.00
2022-11-01T18:51:34.691Z,100.00
2022-11-01T18:54:04.906Z,100.00
2022-11-01T18:56:32.825Z,100.00
2022-11-01T18:59:01.803Z,100.00
2022-11-01T19:01:34.327Z,100.00
2022-11-01T19:04:11.616Z,100.00
2022-11-01T19:06:39.113Z,100.00
2022-11-01T19:09:21.406Z,100.00
2022-11-01T19:11:57.673Z,100.00
2022-11-01T19:14:25.582Z,100.00
2022-11-01T19:16:54.129Z,100.00
2022-11-01T19:19:21.950Z,100.00
2022-11-01T19:21:49.498Z,100.00
2022-11-01T19:24:39.867Z,100.00
2022-11-01T19:27:25.381Z,100.00
2022-11-01T19:29:57.914Z,100.00
2022-11-01T19:32:26.744Z,100.00
2022-11-01T19:34:55.287Z,100.00
2022-11-01T19:37:33.073Z,100.00
2022-11-01T19:40:09.964Z,100.00
2022-11-01T19:42:39.186Z,100.00
2022-11-01T19:45:09.404Z,100.00
2022-11-01T19:47:40.266Z,100.00
2022-11-01T19:50:22.145Z,100.00
2022-11-01T19:52:56.858Z,100.00
2022-11-01T19:55:36.803Z,100.00
2022-11-01T19:58:25.028Z,100.00
2022-11-01T20:01:03.441Z,100.00
2022-11-01T20:03:41.795Z,100.00
2022-11-01T20:06:46.760Z,100.00
2022-11-01T20:09:34.236Z,100.00
2022-11-01T20:12:02.904Z,100.00
2022-11-01T20:14:33.343Z,100.00
2022-11-01T20:17:01.666Z,100.00
2022-11-01T20:19:31.207Z,100.00
2022-11-01T20:21:59.422Z,100.00
2022-11-01T20:24:27.568Z,100.00
2022-11-01T20:26:55.542Z,100.00
2022-11-01T20:29:23.933Z,100.00
2022-11-01T20:31:51.917Z,100.00
2022-11-01T20:34:20.648Z,100.00
2022-11-01T20:37:08.090Z,100.00
2022-11-01T20:39:36.487Z,100.00
2022-11-01T20:42:04.271Z,100.00
2022-11-01T20:44:32.276Z,100.00
2022-11-01T20:46:59.750Z,100.00
2022-11-01T20:49:28.165Z,100.00
2022-11-01T20:52:03.892Z,100.00
2022-11-01T20:54:41.635Z,100.00
2022-11-01T20:57:24.757Z,100.00
2022-11-01T20:59:56.445Z,100.00
2022-11-01T21:02:24.539Z,100.00
2022-11-01T21:05:19.877Z,100.00
2022-11-01T21:07:48.194Z,100.00
2022-11-01T21:10:36.682Z,100.00
2022-11-01T21:13:32.760Z,100.00
2022-11-01T21:16:02.307Z,100.00
2022-11-01T21:18:29.776Z,100.00
2022-11-01T21:20:59.117Z,100.00
2022-11-01T21:23:32.097Z,100.00
2022-11-01T21:26:11.691Z,100.00
2022-11-01T21:28:43.709Z,100.00
2022-11-01T21:31:14.579Z,100.00
2022-11-01T21:33:49.089Z,100.00
2022-11-01T21:36:29.516Z,100.00
2022-11-01T21:39:01.320Z,100.00
2022-11-01T21:41:33.907Z,100.00
2022-11-01T21:44:26.384Z,100.00
2022-11-01T21:47:19.601Z,100.00
2022-11-01T21:49:47.809Z,100.00
2022-11-01T21:52:15.744Z,100.00
2022-11-01T21:54:44.263Z,100.00
2022-11-01T21:57:13.276Z,100.00
2022-11-01T21:59:41.719Z,100.00
2022-11-01T22:02:12.473Z,100.00
2022-11-01T22:04:40.559Z,100.00
2022-11-01T22:07:10.092Z,100.00
2022-11-01T22:09:39.136Z,100.00
2022-11-01T22:12:07.878Z,100.00
2022-11-01T22:14:35.957Z,100.00
2022-11-01T22:17:03.496Z,100.00
2022-11-01T22:19:31.420Z,100.00
2022-11-01T22:22:00.061Z,100.00
2022-11-01T22:24:28.522Z,100.00
2022-11-01T22:26:56.037Z,100.00
2022-11-01T22:29:23.638Z,100.00
2022-11-01T22:31:52.090Z,100.00
2022-11-01T22:34:20.050Z,100.00
2022-11-01T22:36:48.632Z,100.00
2022-11-01T22:39:21.023Z,100.00
2022-11-01T22:41:49.122Z,100.00
2022-11-01T22:44:30.505Z,100.00
2022-11-01T22:47:03.254Z,100.00
2022-11-01T22:49:34.187Z,100.00
2022-11-01T22:52:13.142Z,100.00
2022-11-01T22:54:48.449Z,100.00
2022-11-01T22:57:21.473Z,100.00
2022-11-01T22:59:57.655Z,100.00
2022-11-01T23:02:31.133Z,100.00
2022-11-01T23:05:08.118Z,100.00
2022-11-01T23:07:47.838Z,100.00
2022-11-01T23:10:30.823Z,100.00
2022-11-01T23:13:25.202Z,100.00
2022-11-01T23:16:02.185Z,100.00
2022-11-01T23:18:34.077Z,100.00
2022-11-01T23:21:06.465Z,100.00
2022-11-01T23:23:40.741Z,100.00
2022-11-01T23:26:09.337Z,100.00
2022-11-01T23:28:41.857Z,100.00
2022-11-01T23:31:09.663Z,100.00
2022-11-01T23:33:45.753Z,100.00
2022-11-01T23:36:16.413Z,100.00
2022-11-01T23:38:48.605Z,100.00
2022-11-01T23:41:38.158Z,100.00
2022-11-01T23:44:40.676Z,100.00
2022-11-01T23:47:14.471Z,100.00
2022-11-01T23:49:42.514Z,100.00
2022-11-01T23:52:27.792Z,100.00
2022-11-01T23:54:55.422Z,100.00
2022-11-01T23:57:23.257Z,100.00
2022-11-01T23:59:51.312Z,100.00
